Time;durP1;ratioP1;P1;durP2;ratioP2;P2;SDS_P1;SDS_P2;PMS_P1;PMS_P2;Temp;Humidity;BMP_temperature;BMP_pressure;BME280_temperature;BME280_humidity;BME280_pressure;Samples;Min_cycle;Max_cycle;Signal;HPM_P1;HPM_P2
2022/10/06 00:00:40;;;;;;;31.67;15.57;;;;;;;-141.97;64.11;47509.47;4972475;28;20383;-80
2022/10/06 00:03:05;;;;;;;35.33;17.53;;;;;;;-141.97;63.21;47530.59;4971288;28;20611;-80
2022/10/06 00:05:31;;;;;;;24.50;12.67;;;;;;;-141.97;63.35;47547.91;4972405;28;20179;-80
2022/10/06 00:07:57;;;;;;;17.70;9.57;;;;;;;-141.97;63.36;47542.16;4972178;28;20204;-80
2022/10/06 00:10:22;;;;;;;19.07;10.30;;;;;;;-141.97;65.44;47555.59;4972271;28;20640;-79
2022/10/06 00:12:50;;;;;;;19.57;9.77;;;;;;;-141.97;67.24;47561.38;4972587;28;20180;-80
2022/10/06 00:15:23;;;;;;;20.40;10.80;;;;;;;-141.97;66.48;47522.91;4972295;28;20255;-80
2022/10/06 00:17:49;;;;;;;24.20;10.60;;;;;;;-141.97;66.11;47522.91;4972537;28;20634;-80
2022/10/06 00:20:14;;;;;;;18.50;10.17;;;;;;;-141.97;65.82;47511.38;4972174;28;20272;-79
2022/10/06 00:22:46;;;;;;;40.03;22.70;;;;;;;-141.97;65.38;47588.28;4971972;28;20278;-80
2022/10/06 00:25:14;;;;;;;32.63;18.27;;;;;;;-141.97;65.14;47549.84;4972460;28;20227;-80
2022/10/06 00:27:42;;;;;;;29.83;14.80;;;;;;;-141.97;66.10;47519.06;4972372;28;20204;-79
2022/10/06 00:30:11;;;;;;;27.27;15.30;;;;;;;-141.97;66.39;47509.47;4972259;28;20247;-80
2022/10/06 00:32:37;;;;;;;24.67;13.17;;;;;;;-141.97;65.96;47524.84;4971970;28;20260;-80
2022/10/06 00:35:04;;;;;;;22.43;11.33;;;;;;;-141.97;67.72;47542.16;4972236;28;20602;-80
2022/10/06 00:37:33;;;;;;;19.30;10.70;;;;;;;-141.97;68.59;47526.75;4972011;28;20180;-80
2022/10/06 00:40:00;;;;;;;19.27;9.47;;;;;;;-141.97;69.29;47519.06;4972065;28;20199;-81
2022/10/06 00:42:27;;;;;;;19.93;8.63;;;;;;;-141.97;70.18;47532.53;4972276;28;20168;-80
2022/10/06 00:44:56;;;;;;;16.53;8.47;;;;;;;-141.97;69.96;47507.53;4972540;28;20165;-80
2022/10/06 00:47:23;;;;;;;18.80;8.90;;;;;;;-141.97;69.35;47511.38;4972231;28;20195;-80
2022/10/06 00:49:49;;;;;;;15.47;8.30;;;;;;;-141.97;69.97;47595.97;4972106;28;20200;-80
2022/10/06 00:52:20;;;;;;;17.37;8.10;;;;;;;-141.97;71.60;47534.44;4972018;28;20176;-80
2022/10/06 00:54:46;;;;;;;17.37;8.17;;;;;;;-141.97;71.42;47513.31;4971805;28;20477;-80
2022/10/06 00:57:12;;;;;;;12.57;7.33;;;;;;;-141.97;71.34;47542.16;4971936;28;20172;-80
2022/10/06 00:59:38;;;;;;;14.60;7.43;;;;;;;-141.97;71.17;47513.31;4972431;28;20577;-80
2022/10/06 01:02:10;;;;;;;13.90;7.67;;;;;;;-141.97;71.56;47521.00;4972894;28;20419;-80
2022/10/06 01:04:39;;;;;;;14.63;7.17;;;;;;;-141.97;71.39;47526.75;4979941;28;20226;-80
2022/10/06 01:07:06;;;;;;;13.60;6.80;;;;;;;-141.97;71.80;47478.72;4977921;28;20451;-81
2022/10/06 01:09:32;;;;;;;10.97;6.60;;;;;;;-141.97;72.18;47559.44;4975557;28;20924;-80
2022/10/06 01:12:03;;;;;;;10.77;6.73;;;;;;;-141.97;72.25;47534.44;4975349;28;20506;-80
2022/10/06 01:14:29;;;;;;;13.97;6.70;;;;;;;-141.97;72.64;47557.53;4975204;28;20938;-81
2022/10/06 01:17:06;;;;;;;15.30;7.47;;;;;;;-141.97;73.17;47546.00;4975633;28;20443;-80
2022/10/06 01:19:37;;;;;;;15.70;7.07;;;;;;;-141.97;73.62;47534.44;4975327;28;20411;-80
2022/10/06 01:22:07;;;;;;;11.57;7.47;;;;;;;-141.97;73.04;47509.47;4974853;28;20412;-80
2022/10/06 01:24:33;;;;;;;14.17;7.23;;;;;;;-141.97;72.35;47549.84;4975002;28;20785;-80
2022/10/06 01:27:00;;;;;;;13.53;7.47;;;;;;;-141.97;72.53;47526.75;4974968;28;20419;-80
2022/10/06 01:29:26;;;;;;;16.43;7.63;;;;;;;-141.97;72.35;47565.22;4975414;28;21118;-80
2022/10/06 01:31:51;;;;;;;12.43;7.93;;;;;;;-141.97;72.06;47532.53;4974578;28;20191;-80
2022/10/06 01:34:16;;;;;;;13.17;7.50;;;;;;;-141.97;71.73;47492.16;4980519;28;20183;-79
2022/10/06 01:36:42;;;;;;;14.90;7.83;;;;;;;-141.97;71.66;47569.06;4975906;28;20168;-80
2022/10/06 01:39:07;;;;;;;13.70;7.40;;;;;;;-141.97;70.85;47544.06;4974607;28;20168;-80
2022/10/06 01:41:33;;;;;;;15.10;7.30;;;;;;;-141.97;70.83;47505.63;4974975;28;20203;-80
2022/10/06 01:43:59;;;;;;;12.63;7.23;;;;;;;-141.97;70.62;47517.16;4974732;28;20180;-80
2022/10/06 01:46:24;;;;;;;11.90;7.20;;;;;;;-141.97;71.21;47505.63;4974882;28;20516;-80
2022/10/06 01:48:50;;;;;;;12.40;7.40;;;;;;;-141.97;71.51;47565.22;4974542;28;20208;-80
2022/10/06 01:51:16;;;;;;;13.83;7.33;;;;;;;-141.97;72.01;47546.00;4974196;28;20171;-80
2022/10/06 01:53:41;;;;;;;11.57;6.97;;;;;;;-141.97;71.77;47534.44;4974299;28;20175;-80
2022/10/06 01:56:07;;;;;;;13.30;7.20;;;;;;;-141.97;71.92;47496.00;4974474;28;20192;-81
2022/10/06 01:58:32;;;;;;;14.03;7.10;;;;;;;-141.97;71.51;47534.44;4974593;28;20624;-81
2022/10/06 02:01:08;;;;;;;11.10;6.90;;;;;;;-141.97;71.22;47544.06;4974919;28;20715;-81
2022/10/06 02:03:38;;;;;;;11.70;6.77;;;;;;;-141.97;71.45;47486.41;4974208;28;20539;-81
2022/10/06 02:06:04;;;;;;;13.27;6.87;;;;;;;-141.97;71.25;47565.22;4974603;28;20545;-80
2022/10/06 02:08:30;;;;;;;14.10;7.30;;;;;;;-141.97;71.48;47542.16;4974537;28;20286;-81
2022/10/06 02:10:55;;;;;;;11.97;7.00;;;;;;;-141.97;71.91;47530.59;4973800;28;20710;-81
2022/10/06 02:13:27;;;;;;;12.73;7.27;;;;;;;-141.97;72.61;47526.75;4974038;28;20295;-81
2022/10/06 02:15:58;;;;;;;14.83;7.07;;;;;;;-141.97;72.16;47496.00;4974439;28;20641;-80
2022/10/06 02:18:25;;;;;;;11.73;7.60;;;;;;;-141.97;72.63;47522.91;4974057;28;20160;-80
2022/10/06 02:20:50;;;;;;;10.10;6.50;;;;;;;-141.97;71.95;47534.44;4973966;28;20160;-80
2022/10/06 02:23:16;;;;;;;11.60;7.23;;;;;;;-141.97;71.77;47522.91;4974422;28;20173;-81
2022/10/06 02:25:41;;;;;;;12.07;7.00;;;;;;;-141.97;72.85;47549.84;4974321;28;20171;-81
2022/10/06 02:28:06;;;;;;;13.50;7.57;;;;;;;-141.97;72.55;47534.44;4974034;28;20667;-81
2022/10/06 02:30:32;;;;;;;11.27;6.57;;;;;;;-141.97;72.16;47576.75;4974103;28;20175;-81
2022/10/06 02:32:57;;;;;;;14.73;7.57;;;;;;;-141.97;72.14;47561.38;4974008;28;20160;-80
2022/10/06 02:35:23;;;;;;;15.57;7.90;;;;;;;-141.97;71.44;47519.06;4974075;28;20175;-81
2022/10/06 02:37:49;;;;;;;19.17;9.23;;;;;;;-141.97;71.98;47561.38;4972795;28;20699;-81
2022/10/06 02:40:15;;;;;;;17.83;8.70;;;;;;;-141.97;71.57;47561.38;4973289;28;20187;-81
2022/10/06 02:42:41;;;;;;;13.50;7.77;;;;;;;-141.97;72.13;47546.00;4976088;28;20174;-81
2022/10/06 02:45:07;;;;;;;18.00;8.70;;;;;;;-141.97;73.28;47534.44;4980396;28;20255;-80
2022/10/06 02:47:36;;;;;;;17.33;8.40;;;;;;;-141.97;74.17;47534.44;4989550;28;20214;-80
2022/10/06 02:50:04;;;;;;;17.93;8.67;;;;;;;-141.97;74.96;47569.06;4995346;28;20418;-80
2022/10/06 02:52:33;;;;;;;15.83;8.20;;;;;;;-141.97;75.83;47465.25;4995618;28;20439;-80
2022/10/06 02:54:59;;;;;;;15.93;7.50;;;;;;;-141.97;76.58;47530.59;4997292;28;20499;-80
2022/10/06 02:57:25;;;;;;;13.03;7.60;;;;;;;-141.97;76.72;47540.22;4996598;28;20900;-80
2022/10/06 02:59:50;;;;;;;14.80;7.60;;;;;;;-141.97;76.11;47557.53;4995012;28;20179;-79
2022/10/06 03:02:16;;;;;;;11.23;7.30;;;;;;;-141.97;75.56;47522.91;4979337;28;20416;-80
2022/10/06 03:04:41;;;;;;;12.10;7.77;;;;;;;-141.97;75.10;47546.00;4973694;28;20260;-80
2022/10/06 03:07:06;;;;;;;12.27;8.10;;;;;;;-141.97;75.15;47524.84;4973617;28;20203;-80
2022/10/06 03:09:32;;;;;;;13.40;8.10;;;;;;;-141.97;74.49;47682.47;4976030;28;20172;-80
2022/10/06 03:11:57;;;;;;;19.60;8.10;;;;;;;-141.97;74.66;47580.59;4975144;28;20173;-80
2022/10/06 03:14:23;;;;;;;15.97;7.80;;;;;;;-141.97;74.82;47563.28;4973429;28;20251;-80
2022/10/06 03:16:50;;;;;;;10.63;7.43;;;;;;;-141.97;75.13;47559.44;4973605;28;20643;-80
2022/10/06 03:19:16;;;;;;;14.77;8.10;;;;;;;-141.97;74.92;47559.44;4973181;28;20195;-80
2022/10/06 03:21:43;;;;;;;14.23;7.27;;;;;;;-141.97;75.58;47511.38;4973066;28;20443;-81
2022/10/06 03:24:09;;;;;;;12.77;8.23;;;;;;;-141.97;75.79;47584.44;4973657;28;20226;-81
2022/10/06 03:26:39;;;;;;;13.57;7.80;;;;;;;-141.97;75.65;47524.84;4976001;28;20549;-80
2022/10/06 03:29:05;;;;;;;15.50;7.70;;;;;;;-141.97;75.82;47549.84;4974343;28;20215;-80
2022/10/06 03:31:31;;;;;;;11.33;7.27;;;;;;;-141.97;75.04;47557.53;4973879;28;20411;-80
2022/10/06 03:33:57;;;;;;;11.70;7.43;;;;;;;-141.97;75.34;47547.91;4972471;28;20191;-81
2022/10/06 03:36:25;;;;;;;16.63;7.07;;;;;;;-141.97;75.27;47549.84;4976828;28;20171;-80
2022/10/06 03:38:51;;;;;;;16.67;6.83;;;;;;;-141.97;75.45;47538.28;4973452;28;20164;-81
2022/10/06 03:41:18;;;;;;;18.77;9.10;;;;;;;-141.97;74.98;47488.31;4972920;28;20168;-81
2022/10/06 03:43:46;;;;;;;23.07;9.50;;;;;;;-141.97;74.94;47526.75;4973220;28;20695;-80
2022/10/06 03:46:15;;;;;;;27.53;11.67;;;;;;;-141.97;74.34;47538.28;4972390;28;20903;-81
2022/10/06 03:48:41;;;;;;;18.97;9.47;;;;;;;-141.97;74.25;47565.22;4972912;28;20266;-81
2022/10/06 03:51:10;;;;;;;17.83;8.87;;;;;;;-141.97;75.24;47515.22;4972925;28;20931;-80
2022/10/06 03:53:36;;;;;;;18.13;8.73;;;;;;;-141.97;75.64;47540.22;4972103;28;20659;-80
2022/10/06 03:56:11;;;;;;;18.47;8.70;;;;;;;-141.97;75.21;47544.06;4987735;28;20431;-81
2022/10/06 03:58:39;;;;;;;19.80;8.30;;;;;;;-141.97;75.48;47532.53;4972630;28;20171;-80
2022/10/06 04:01:07;;;;;;;19.47;8.53;;;;;;;-141.97;76.05;47530.59;4972563;28;20408;-80
2022/10/06 04:03:32;;;;;;;15.90;7.80;;;;;;;-141.97;76.66;47565.22;4972343;28;20423;-80
2022/10/06 04:06:00;;;;;;;13.60;7.87;;;;;;;-141.97;76.69;47546.00;4972234;28;20458;-80
2022/10/06 04:08:27;;;;;;;17.03;8.60;;;;;;;-141.97;75.64;47567.13;4972124;28;20637;-81
2022/10/06 04:10:53;;;;;;;18.30;9.43;;;;;;;-141.97;75.59;47478.72;4972292;28;20416;-82
2022/10/06 04:13:21;;;;;;;18.23;8.93;;;;;;;-141.97;74.89;47645.94;4972429;28;20451;-80
2022/10/06 04:15:47;;;;;;;22.10;9.23;;;;;;;-141.97;76.00;47513.31;4971811;28;20275;-81
2022/10/06 04:18:14;;;;;;;17.23;8.90;;;;;;;-141.97;75.77;47578.66;4976648;28;20416;-81
2022/10/06 04:20:39;;;;;;;16.70;8.40;;;;;;;-141.97;76.27;47574.81;4976884;28;20489;-79
2022/10/06 04:23:06;;;;;;;19.20;8.67;;;;;;;-141.97;76.52;47519.06;4972425;28;20994;-80
2022/10/06 04:25:32;;;;;;;21.23;9.67;;;;;;;-141.97;75.76;47565.22;4970992;28;20180;-81
2022/10/06 04:27:58;;;;;;;21.53;9.13;;;;;;;-141.97;75.21;47530.59;4971610;28;20474;-80
2022/10/06 04:30:25;;;;;;;22.63;9.07;;;;;;;-141.97;75.76;47534.44;4939975;28;20487;-81
2022/10/06 04:32:50;;;;;;;16.87;8.50;;;;;;;-141.97;76.05;47434.50;4971781;28;20440;-81
2022/10/06 04:35:16;;;;;;;17.27;8.57;;;;;;;-141.97;76.23;47572.91;4976063;28;20506;-80
2022/10/06 04:37:42;;;;;;;15.53;8.20;;;;;;;-141.97;75.84;47546.00;4974492;28;20176;-80
2022/10/06 04:40:08;;;;;;;16.70;8.43;;;;;;;-141.97;76.95;47521.00;4988902;28;20232;-80
2022/10/06 04:42:33;;;;;;;15.27;7.80;;;;;;;-141.97;77.24;47492.16;4975383;28;20183;-81
2022/10/06 04:44:58;;;;;;;18.57;8.37;;;;;;;-141.97;78.00;47540.22;4974138;28;20260;-79
2022/10/06 04:47:24;;;;;;;24.50;13.53;;;;;;;-141.97;78.43;47544.06;4975241;28;20231;-80
2022/10/06 04:49:49;;;;;;;16.07;8.30;;;;;;;-141.97;78.87;47570.97;4974935;28;20191;-81
2022/10/06 04:52:15;;;;;;;11.37;7.37;;;;;;;-141.97;78.36;47538.28;4975303;28;20182;-80
2022/10/06 04:54:40;;;;;;;13.37;6.20;;;;;;;-141.97;78.16;47521.00;4973807;28;20290;-80
2022/10/06 04:57:05;;;;;;;13.27;6.60;;;;;;;-141.97;78.45;47396.06;4975171;28;20180;-83
2022/10/06 05:02:15;;;;;;;12.80;6.40;;;;;;;-141.97;78.52;47584.44;4975995;28;20215;-81
2022/10/06 05:04:40;;;;;;;12.83;7.63;;;;;;;-141.97;78.24;47555.59;4975312;28;21031;-80
2022/10/06 05:07:06;;;;;;;15.53;8.70;;;;;;;-141.97;77.73;47540.22;4974971;28;20632;-82
2022/10/06 05:09:31;;;;;;;26.73;13.20;;;;;;;-141.97;77.55;47538.28;4974952;28;20613;-80
2022/10/06 05:11:57;;;;;;;15.10;9.17;;;;;;;-141.97;76.83;47563.28;4974663;28;20251;-81
2022/10/06 05:14:22;;;;;;;14.70;7.93;;;;;;;-141.97;75.59;47546.00;4975148;28;20648;-79
2022/10/06 05:16:48;;;;;;;13.20;7.23;;;;;;;-141.97;75.28;47644.00;4976441;28;20415;-81
2022/10/06 05:19:13;;;;;;;16.67;9.57;;;;;;;-141.97;74.81;47538.28;4976393;28;20163;-79
2022/10/06 05:21:39;;;;;;;12.03;7.77;;;;;;;-141.97;74.48;47540.22;4975461;28;20176;-80
2022/10/06 05:24:05;;;;;;;14.67;7.20;;;;;;;-141.97;73.84;47561.38;4965548;28;20587;-79
2022/10/06 05:26:32;;;;;;;14.33;7.10;;;;;;;-141.97;73.97;47538.28;4956360;28;20568;-79
2022/10/06 05:28:58;;;;;;;12.90;7.87;;;;;;;-141.97;73.39;47561.38;4946296;28;20652;-79
2022/10/06 05:31:30;;;;;;;16.87;8.67;;;;;;;-141.97;72.51;47546.00;4956043;28;20452;-79
2022/10/06 05:33:56;;;;;;;16.23;9.47;;;;;;;-141.97;72.48;47572.91;4956400;28;20256;-79
2022/10/06 05:36:25;;;;;;;18.13;8.07;;;;;;;-141.97;72.52;47553.69;4960676;28;20867;-79
2022/10/06 05:38:51;;;;;;;14.33;8.43;;;;;;;-141.97;73.01;47567.13;4956936;28;20448;-79
2022/10/06 05:41:25;;;;;;;17.07;9.90;;;;;;;-141.97;72.43;47534.44;4956748;28;20470;-81
2022/10/06 05:43:52;;;;;;;15.37;8.70;;;;;;;-141.97;73.75;47565.22;4960089;28;20801;-80
2022/10/06 05:46:19;;;;;;;12.97;7.17;;;;;;;-141.97;73.54;47515.22;4957186;29;20479;-82
2022/10/06 05:48:50;;;;;;;14.13;7.17;;;;;;;-141.97;75.33;47472.94;4954295;28;20555;-82
2022/10/06 05:51:18;;;;;;;14.13;8.13;;;;;;;-141.97;75.17;47559.44;4955382;28;20416;-81
2022/10/06 05:53:44;;;;;;;15.97;8.53;;;;;;;-141.97;75.66;47505.63;4954985;28;20763;-82
2022/10/06 05:56:11;;;;;;;13.83;8.10;;;;;;;-141.97;74.52;47549.84;4954994;28;20412;-81
2022/10/06 05:58:39;;;;;;;12.93;7.97;;;;;;;-141.97;74.45;47563.28;4954845;28;20173;-80
2022/10/06 06:01:34;;;;;;;15.33;8.73;;;;;;;-141.97;75.14;47561.38;4954702;28;20996;-82
2022/10/06 06:04:02;;;;;;;15.73;9.67;;;;;;;-141.97;73.86;47549.84;4954984;28;20466;-80
2022/10/06 06:06:32;;;;;;;15.23;9.40;;;;;;;-141.97;73.34;47553.69;4953473;29;20519;-81
2022/10/06 06:09:01;;;;;;;15.80;8.87;;;;;;;-141.97;72.63;47553.69;4954194;28;20584;-80
2022/10/06 06:11:30;;;;;;;13.03;7.80;;;;;;;-141.97;72.30;47592.13;4954304;28;20440;-80
2022/10/06 06:14:06;;;;;;;16.50;9.13;;;;;;;-141.97;72.61;47686.31;4954771;28;20285;-82
2022/10/06 06:16:32;;;;;;;16.70;8.20;;;;;;;-141.97;72.34;47538.28;4954275;28;20666;-81
2022/10/06 06:18:59;;;;;;;16.23;9.17;;;;;;;-141.97;71.83;47524.84;4954338;28;20252;-81
2022/10/06 06:21:25;;;;;;;24.07;11.47;;;;;;;-141.97;70.96;47561.38;4953805;28;20268;-81
2022/10/06 06:23:51;;;;;;;31.40;13.60;;;;;;;-141.97;70.17;47576.75;4961885;28;20187;-79
2022/10/06 06:26:28;;;;;;;16.17;8.90;;;;;;;-141.97;68.76;47570.97;4973601;28;20172;-80
2022/10/06 06:28:55;;;;;;;18.50;9.23;;;;;;;-141.97;68.87;47592.13;4948666;28;20358;-80
2022/10/06 06:31:26;;;;;;;17.20;9.13;;;;;;;-141.97;68.30;47569.06;4962319;28;20196;-80
2022/10/06 06:33:57;;;;;;;15.73;9.53;;;;;;;-141.97;67.92;47546.00;4954602;28;20248;-80
2022/10/06 06:36:34;;;;;;;16.90;9.07;;;;;;;-141.97;66.06;47540.22;4953209;28;20661;-80
2022/10/06 06:39:03;;;;;;;16.53;8.27;;;;;;;-141.97;65.43;47565.22;4954478;28;20602;-81
2022/10/06 06:41:30;;;;;;;14.00;8.37;;;;;;;-141.97;64.91;47557.53;4958608;28;20180;-80
2022/10/06 06:43:58;;;;;;;13.20;7.73;;;;;;;-141.97;63.73;47542.16;4971532;28;20172;-81
2022/10/06 06:46:26;;;;;;;13.73;7.33;;;;;;;-141.97;63.91;47569.06;4974224;28;20161;-80
2022/10/06 06:48:53;;;;;;;31.43;16.67;;;;;;;-141.97;63.58;47472.94;4973071;28;20298;-81
2022/10/06 06:51:22;;;;;;;16.07;8.33;;;;;;;-141.97;62.43;47580.59;4973000;28;20168;-83
2022/10/06 06:53:52;;;;;;;11.40;6.77;;;;;;;-141.97;61.61;47547.91;4972272;28;20716;-80
2022/10/06 06:56:18;;;;;;;12.67;6.57;;;;;;;-141.97;60.27;47630.56;4972721;28;20772;-81
2022/10/06 06:58:47;;;;;;;10.30;6.40;;;;;;;-141.97;58.99;47536.38;4972766;28;20630;-81
2022/10/06 07:01:18;;;;;;;10.33;6.40;;;;;;;-141.97;57.35;47557.53;4972801;28;20165;-81
2022/10/06 07:03:49;;;;;;;10.30;5.03;;;;;;;-141.97;55.72;47542.16;4972474;28;20617;-81
2022/10/06 07:06:15;;;;;;;8.63;5.53;;;;;;;-141.97;54.88;47555.59;4972865;28;20180;-81
2022/10/06 07:08:43;;;;;;;9.00;6.07;;;;;;;-141.97;54.21;47553.69;4952265;28;20622;-82
2022/10/06 07:11:21;;;;;;;8.10;4.83;;;;;;;-141.97;53.18;47546.00;4969925;28;20191;-81
2022/10/06 07:13:52;;;;;;;7.97;6.13;;;;;;;-141.97;52.82;47509.47;4972327;28;20698;-81
2022/10/06 07:27:27;;;;;;;6.93;5.03;;;;;;;-141.97;46.47;47503.69;4958319;28;20205;-79
2022/10/06 07:29:55;;;;;;;9.97;5.80;;;;;;;-141.97;46.47;47569.06;4972399;28;20203;-80
2022/10/06 07:32:25;;;;;;;5.60;4.90;;;;;;;-141.97;46.32;47540.22;4972448;28;20845;-79
2022/10/06 07:34:50;;;;;;;7.37;4.40;;;;;;;-141.97;44.68;47515.22;4973465;28;20237;-80
2022/10/06 07:37:17;;;;;;;13.67;5.13;;;;;;;-141.97;44.06;47515.22;4968412;28;20628;-80
2022/10/06 07:39:48;;;;;;;17.33;4.60;;;;;;;-141.97;44.22;47522.91;4964319;28;20255;-77
2022/10/06 07:42:14;;;;;;;5.37;4.57;;;;;;;-141.97;43.38;47522.91;4956066;28;20200;-79
2022/10/06 07:44:41;;;;;;;5.53;4.17;;;;;;;-141.97;42.22;47524.84;4953570;28;20176;-80
2022/10/06 07:47:07;;;;;;;6.97;4.00;;;;;;;-141.97;42.50;47526.75;4952543;28;20173;-79
2022/10/06 07:49:33;;;;;;;8.57;4.20;;;;;;;-141.97;42.97;47530.59;4952742;28;20169;-79
2022/10/06 07:51:58;;;;;;;8.30;4.17;;;;;;;-141.97;42.37;47530.59;4952742;28;20177;-80
2022/10/06 07:54:24;;;;;;;5.70;4.30;;;;;;;-141.97;41.83;47480.63;4952690;28;20295;-78
2022/10/06 07:56:51;;;;;;;5.87;3.70;;;;;;;-141.97;41.39;47511.38;4952246;28;20185;-79
2022/10/06 07:59:17;;;;;;;5.47;3.70;;;;;;;-141.97;40.98;47538.28;4952508;28;20196;-78
2022/10/06 08:01:43;;;;;;;8.00;4.03;;;;;;;-141.97;40.38;47540.22;4951688;29;20176;-78
2022/10/06 08:04:09;;;;;;;7.43;4.27;;;;;;;-141.97;40.02;47492.16;4959018;28;20203;-79
2022/10/06 08:06:34;;;;;;;9.77;4.40;;;;;;;-141.97;39.59;47522.91;4966133;28;20842;-78
2022/10/06 08:09:00;;;;;;;9.83;4.60;;;;;;;-141.97;40.52;47538.28;4928121;28;20232;-78
2022/10/06 08:11:26;;;;;;;6.67;3.97;;;;;;;-141.97;41.15;47534.44;4953139;28;20263;-78
2022/10/06 08:13:51;;;;;;;6.07;4.00;;;;;;;-141.97;41.51;47465.25;4956454;28;20164;-79
2022/10/06 08:16:19;;;;;;;6.50;4.10;;;;;;;-141.97;40.20;47511.38;4956045;28;20180;-79
2022/10/06 08:18:52;;;;;;;5.37;3.80;;;;;;;-141.97;39.35;47524.84;4956520;28;20176;-78
2022/10/06 08:21:20;;;;;;;7.20;4.60;;;;;;;-141.97;40.37;47486.41;4955228;28;20407;-78
2022/10/06 08:23:48;;;;;;;10.03;5.23;;;;;;;-141.97;40.22;47476.78;4955828;28;20176;-78
2022/10/06 08:26:15;;;;;;;7.27;4.43;;;;;;;-141.97;38.87;47484.47;4955554;28;20667;-76
2022/10/06 08:28:47;;;;;;;6.50;4.10;;;;;;;-141.97;38.26;47649.78;4955779;28;20201;-76
2022/10/06 08:31:14;;;;;;;7.30;3.97;;;;;;;-141.97;38.34;47488.31;4964106;28;20290;-77
2022/10/06 08:33:44;;;;;;;8.30;4.57;;;;;;;-141.97;38.08;47505.63;4975715;28;20175;-77
2022/10/06 08:36:18;;;;;;;12.57;8.60;;;;;;;-141.97;38.50;47467.19;4976087;28;20169;-77
2022/10/06 08:38:48;;;;;;;8.87;6.70;;;;;;;-141.97;38.13;47438.34;4975680;28;20559;-77
2022/10/06 08:41:18;;;;;;;5.17;3.80;;;;;;;-141.97;37.57;47492.16;4975540;28;20634;-77
2022/10/06 08:43:55;;;;;;;4.77;4.00;;;;;;;-141.97;37.27;47505.63;4975746;28;20176;-78
2022/10/06 08:46:23;;;;;;;6.73;3.90;;;;;;;-141.97;36.76;47490.25;4975790;28;20226;-78
2022/10/06 08:48:48;;;;;;;3.93;3.53;;;;;;;-141.97;36.40;47453.72;4975686;28;20195;-78
2022/10/06 08:51:36;;;;;;;5.17;3.57;;;;;;;-141.97;36.64;47471.03;4975381;28;20179;-78
2022/10/06 08:54:11;;;;;;;4.80;3.80;;;;;;;-141.97;36.21;47557.53;4975538;28;20609;-77
2022/10/06 08:56:59;;;;;;;5.27;3.40;;;;;;;-141.97;35.81;47461.41;4975581;28;20203;-76
2022/10/06 08:59:24;;;;;;;4.47;3.03;;;;;;;-141.97;35.95;47459.50;4975220;28;20780;-77
2022/10/06 09:01:53;;;;;;;5.23;3.37;;;;;;;-141.97;35.65;47449.88;4975304;28;20180;-77
2022/10/06 09:04:27;;;;;;;3.43;3.13;;;;;;;-141.97;35.03;47494.09;4975084;28;20180;-77
2022/10/06 09:07:02;;;;;;;3.87;3.20;;;;;;;-141.97;34.90;47486.41;4975054;28;20183;-77
2022/10/06 09:09:56;;;;;;;9.53;3.73;;;;;;;-141.97;34.89;47438.34;4974884;28;20207;-77
2022/10/06 09:12:43;;;;;;;5.37;3.50;;;;;;;-141.97;34.47;47463.34;4973707;28;20184;-77
2022/10/06 09:15:27;;;;;;;4.37;3.40;;;;;;;-141.97;34.68;47430.66;4974955;28;20178;-76
2022/10/06 09:17:57;;;;;;;3.40;2.97;;;;;;;-141.97;35.54;47469.09;4975068;28;20172;-77
2022/10/06 09:20:36;;;;;;;3.57;3.00;;;;;;;-141.97;34.94;47457.56;4974890;28;20164;-77
2022/10/06 09:23:13;;;;;;;3.87;2.87;;;;;;;-141.97;34.45;47521.00;4974129;28;20168;-77
2022/10/06 09:25:39;;;;;;;3.93;2.90;;;;;;;-141.97;33.97;47480.63;4974813;28;20706;-77
2022/10/06 09:28:14;;;;;;;5.67;3.60;;;;;;;-141.97;34.59;47447.97;4974881;28;20195;-77
2022/10/06 09:30:41;;;;;;;5.23;3.00;;;;;;;-141.97;34.02;47428.75;4974901;28;20671;-77
2022/10/06 09:33:16;;;;;;;3.83;2.90;;;;;;;-141.97;33.75;47447.97;4975155;28;20171;-77
2022/10/06 09:36:05;;;;;;;5.07;3.00;;;;;;;-141.97;33.67;47469.09;4974705;28;20167;-77
2022/10/06 09:38:55;;;;;;;5.23;3.13;;;;;;;-141.97;34.64;47465.25;4975192;28;20531;-77
2022/10/06 09:41:37;;;;;;;7.30;3.20;;;;;;;-141.97;34.21;47492.16;4933786;29;20197;-76
2022/10/06 09:44:17;;;;;;;5.50;2.90;;;;;;;-141.97;33.72;47447.97;4933673;29;20220;-76
2022/10/06 09:46:42;;;;;;;4.50;3.23;;;;;;;-141.97;33.76;47449.88;4933597;29;20212;-77
2022/10/06 09:49:18;;;;;;;4.77;3.00;;;;;;;-141.97;33.61;47478.72;4934062;29;20205;-76
2022/10/06 09:52:14;;;;;;;4.17;3.20;;;;;;;-141.97;33.67;47469.09;4933706;29;20226;-77
2022/10/06 09:54:42;;;;;;;5.97;3.20;;;;;;;-141.97;33.12;47415.28;4858274;29;20231;-77
2022/10/06 09:57:30;;;;;;;5.33;3.00;;;;;;;-141.97;32.77;47453.72;4858616;29;20197;-77
2022/10/06 09:59:57;;;;;;;5.00;3.10;;;;;;;-141.97;32.77;47422.97;4858225;29;20740;-77
2022/10/06 10:02:39;;;;;;;3.73;3.00;;;;;;;-141.97;32.79;47453.72;4858419;29;20562;-77
2022/10/06 10:05:18;;;;;;;4.67;3.27;;;;;;;-141.97;32.39;47344.19;4858213;29;20200;-77
2022/10/06 10:07:46;;;;;;;11.63;6.27;;;;;;;-141.97;32.81;47461.41;4858180;29;20218;-77
2022/10/06 10:10:18;;;;;;;5.00;3.47;;;;;;;-141.97;33.06;47463.34;4858306;29;20716;-77
2022/10/06 10:12:49;;;;;;;4.67;2.90;;;;;;;-141.97;33.50;47424.91;4858244;29;20243;-77
2022/10/06 10:15:17;;;;;;;4.43;2.80;;;;;;;-141.97;33.46;47488.31;4858080;29;20669;-77
2022/10/06 10:17:45;;;;;;;6.57;3.00;;;;;;;-141.97;33.33;47449.88;4866577;29;20285;-77
2022/10/06 10:20:33;;;;;;;5.30;3.50;;;;;;;-141.97;34.01;47461.41;4895680;29;20647;-76
2022/10/06 10:23:28;;;;;;;12.47;3.60;;;;;;;-141.97;33.38;47476.78;4895436;29;20179;-77
2022/10/06 10:26:16;;;;;;;6.50;3.50;;;;;;;-141.97;33.24;47457.56;4876651;29;20199;-77
2022/10/06 10:29:06;;;;;;;6.23;4.43;;;;;;;-141.97;33.20;47438.34;4877810;29;20203;-76
2022/10/06 10:31:56;;;;;;;5.53;3.40;;;;;;;-141.97;33.17;47453.72;4898930;29;20204;-77
2022/10/06 10:34:24;;;;;;;4.33;3.27;;;;;;;-141.97;34.00;47455.66;4913874;29;20186;-76
2022/10/06 10:36:53;;;;;;;3.70;3.10;;;;;;;-141.97;34.00;47434.50;4914037;29;20280;-76
2022/10/06 10:39:32;;;;;;;6.43;3.33;;;;;;;-141.97;32.94;47449.88;4914010;29;20186;-76
2022/10/06 10:42:03;;;;;;;6.73;3.80;;;;;;;-141.97;33.00;47457.56;4914025;29;20243;-76
2022/10/06 10:44:36;;;;;;;5.90;3.20;;;;;;;-141.97;33.60;47488.31;4913889;29;20562;-76
2022/10/06 10:47:13;;;;;;;4.53;3.10;;;;;;;-141.97;33.33;47488.31;4914018;29;20175;-76
2022/10/06 10:49:44;;;;;;;6.63;3.50;;;;;;;-141.97;33.20;47446.03;4914029;29;20201;-76
2022/10/06 10:52:15;;;;;;;6.47;3.30;;;;;;;-141.97;32.49;47461.41;4913800;29;20175;-77
2022/10/06 10:54:52;;;;;;;3.20;2.83;;;;;;;-141.97;32.18;47446.03;4913381;29;20330;-77
2022/10/06 10:57:23;;;;;;;4.03;2.73;;;;;;;-141.97;32.63;47461.41;4913747;29;20185;-78
2022/10/06 11:00:03;;;;;;;4.67;3.00;;;;;;;-141.97;32.22;47488.31;4913695;29;20254;-77
2022/10/06 11:02:29;;;;;;;3.83;2.80;;;;;;;-141.97;32.54;47484.47;4934872;28;20196;-77
2022/10/06 11:05:15;;;;;;;5.90;2.83;;;;;;;-141.97;32.42;47465.25;4973354;28;20270;-77
2022/10/06 11:07:41;;;;;;;5.93;2.83;;;;;;;-141.97;32.91;47467.19;4972972;28;20196;-77
2022/10/06 11:10:24;;;;;;;3.90;2.80;;;;;;;-141.97;32.92;47447.97;4972901;28;20569;-75
2022/10/06 11:13:09;;;;;;;5.40;3.43;;;;;;;-141.97;32.90;47476.78;4972947;28;20270;-78
2022/10/06 11:15:53;;;;;;;3.93;3.20;;;;;;;-141.97;33.20;47471.03;4972928;28;20218;-77
2022/10/06 11:18:56;;;;;;;13.70;8.23;;;;;;;-141.97;32.76;47442.19;4972942;28;20185;-77
2022/10/06 11:21:35;;;;;;;3.90;3.50;;;;;;;-141.97;32.44;47438.34;4971278;28;20580;-77
2022/10/06 11:24:03;;;;;;;5.53;3.30;;;;;;;-141.97;32.47;47449.88;4944662;28;20236;-77
2022/10/06 11:26:52;;;;;;;5.57;3.00;;;;;;;-141.97;32.27;47438.34;4966066;28;20223;-76
2022/10/06 11:29:32;;;;;;;4.67;3.57;;;;;;;-141.97;32.97;47494.09;4925627;29;20226;-77
2022/10/06 11:32:09;;;;;;;7.10;3.67;;;;;;;-141.97;32.59;47449.88;4925773;29;20429;-77
2022/10/06 11:34:35;;;;;;;6.78;3.60;;;;;;;-141.97;32.60;47576.75;4927987;29;20945;-83
2022/10/06 11:37:22;;;;;;;6.33;3.10;;;;;;;-141.97;31.87;47434.50;4925112;29;20197;-82